Time;durP1;ratioP1;P1;durP2;ratioP2;P2;SDS_P1;SDS_P2;PMS_P1;PMS_P2;Temp;Humidity;BMP_temperature;BMP_pressure;BME280_temperature;BME280_humidity;BME280_pressure;Samples;Min_cycle;Max_cycle;Signal;HPM_P1;HPM_P2
2022/09/14 04:32:14;;;;;;;;;4.75;3.25;;;;;;;;5152220;22;45511;-63
2022/09/14 04:34:39;;;;;;;;;5.00;5.00;;;;;;;;5036303;28;45285;-62
2022/09/14 04:37:04;;;;;;;;;6.00;5.00;;;;;;;;5025159;28;46109;-62
2022/09/14 04:39:30;;;;;;;;;4.50;3.75;;;;;;;;5033108;28;45325;-62
2022/09/14 04:41:55;;;;;;;;;5.67;4.67;;;;;;;;5030277;28;45328;-62
2022/09/14 04:44:20;;;;;;;;;5.00;5.00;;;;;;;;5020571;28;45637;-62
2022/09/14 04:46:45;;;;;;;;;5.00;5.00;;;;;;;;5022770;28;46085;-63
2022/09/14 04:49:11;;;;;;;;;4.50;4.50;;;;;;;;5030660;28;45821;-63
2022/09/14 04:51:37;;;;;;;;;8.75;5.00;;;;;;;;5024167;28;45337;-63
2022/09/14 04:54:03;;;;;;;;;4.00;4.00;;;;;;;;5019882;28;45137;-64
2022/09/14 04:56:30;;;;;;;;;7.00;5.00;;;;;;;;5015054;28;45545;-63
2022/09/14 04:58:57;;;;;;;;;6.75;5.00;;;;;;;;5018820;28;45290;-63
2022/09/14 05:01:24;;;;;;;;;3.33;2.00;;;;;;;;5017775;28;45338;-63
2022/09/14 05:03:50;;;;;;;;;7.50;4.00;;;;;;;;5023492;28;45442;-63
2022/09/14 05:06:16;;;;;;;;;5.33;5.33;;;;;;;;5026088;28;45370;-62
2022/09/14 05:08:42;;;;;;;;;6.00;5.00;;;;;;;;5023065;28;45447;-63
2022/09/14 05:11:08;;;;;;;;;5.75;5.00;;;;;;;;5024566;28;45381;-62
2022/09/14 05:13:34;;;;;;;;;9.67;5.67;;;;;;;;5018313;28;45452;-62
2022/09/14 05:16:06;;;;;;;;;8.00;8.00;;;;;;;;5018867;28;45531;-63
2022/09/14 05:18:31;;;;;;;;;6.25;6.25;;;;;;;;5017234;28;46022;-63
2022/09/14 05:20:59;;;;;;;;;8.00;8.00;;;;;;;;5022057;28;45538;-63
2022/09/14 05:23:24;;;;;;;;;9.25;6.00;;;;;;;;5020740;28;45639;-63
2022/09/14 05:25:52;;;;;;;;;5.00;5.00;;;;;;;;5023984;28;46095;-63
2022/09/14 05:28:17;;;;;;;;;6.25;6.00;;;;;;;;5023260;28;45333;-62
2022/09/14 05:30:43;;;;;;;;;4.50;4.50;;;;;;;;5017306;28;46231;-61
2022/09/14 05:33:08;;;;;;;;;6.00;6.00;;;;;;;;5018637;28;45526;-62
2022/09/14 05:35:33;;;;;;;;;5.50;5.00;;;;;;;;5031986;28;46253;-61
2022/09/14 05:37:58;;;;;;;;;7.00;5.33;;;;;;;;5022940;28;45359;-61
2022/09/14 05:40:23;;;;;;;;;7.00;7.00;;;;;;;;5024536;28;45573;-61
2022/09/14 05:42:49;;;;;;;;;6.00;4.00;;;;;;;;5022142;28;45427;-61
2022/09/14 05:45:14;;;;;;;;;6.00;6.00;;;;;;;;5021687;28;46916;-61
2022/09/14 05:47:39;;;;;;;;;7.67;6.33;;;;;;;;5021377;28;45355;-62
2022/09/14 05:50:07;;;;;;;;;9.75;7.00;;;;;;;;5019917;28;45525;-62
2022/09/14 05:52:32;;;;;;;;;6.75;6.00;;;;;;;;5020123;28;45288;-61
2022/09/14 05:54:57;;;;;;;;;10.67;8.67;;;;;;;;5019690;28;45276;-62
2022/09/14 05:57:22;;;;;;;;;7.00;6.67;;;;;;;;5034859;28;45515;-62
2022/09/14 05:59:48;;;;;;;;;10.25;9.25;;;;;;;;5030951;28;45166;-63
2022/09/14 06:02:13;;;;;;;;;7.75;6.50;;;;;;;;5035907;28;45495;-62
2022/09/14 06:04:38;;;;;;;;;8.25;7.00;;;;;;;;5037302;28;45771;-63
2022/09/14 06:07:03;;;;;;;;;8.00;8.00;;;;;;;;5026364;28;45479;-63
2022/09/14 06:09:29;;;;;;;;;6.00;6.00;;;;;;;;5032960;28;45705;-62
2022/09/14 06:11:54;;;;;;;;;5.00;5.00;;;;;;;;5019503;28;45468;-63
2022/09/14 06:14:20;;;;;;;;;8.50;6.75;;;;;;;;5020459;28;45396;-63
2022/09/14 06:16:45;;;;;;;;;9.00;7.00;;;;;;;;5041133;28;45347;-63
2022/09/14 06:19:13;;;;;;;;;8.00;8.00;;;;;;;;5018066;28;45809;-63
2022/09/14 06:21:38;;;;;;;;;8.00;8.00;;;;;;;;5029583;28;45770;-63
2022/09/14 06:24:03;;;;;;;;;7.75;6.25;;;;;;;;5036945;28;45295;-63
2022/09/14 06:26:30;;;;;;;;;5.00;4.67;;;;;;;;5017628;28;45576;-63
2022/09/14 06:28:56;;;;;;;;;7.00;5.75;;;;;;;;5015966;28;47884;-63
2022/09/14 06:31:21;;;;;;;;;8.25;6.50;;;;;;;;5018284;28;45393;-62
2022/09/14 06:33:47;;;;;;;;;6.00;6.00;;;;;;;;5029341;28;46604;-62
2022/09/14 06:36:14;;;;;;;;;4.33;3.67;;;;;;;;5012837;28;45604;-62
2022/09/14 06:38:39;;;;;;;;;7.00;7.00;;;;;;;;5022906;28;45300;-64
2022/09/14 06:41:07;;;;;;;;;8.00;6.75;;;;;;;;5015944;28;45503;-64
2022/09/14 06:43:34;;;;;;;;;7.75;6.00;;;;;;;;5022284;28;46324;-65
2022/09/14 06:45:59;;;;;;;;;6.75;6.75;;;;;;;;5033444;28;45542;-64
2022/09/14 06:48:25;;;;;;;;;6.25;4.50;;;;;;;;5024135;28;45861;-64
2022/09/14 06:50:50;;;;;;;;;5.25;4.75;;;;;;;;5026018;28;45427;-64
2022/09/14 06:53:16;;;;;;;;;4.00;4.00;;;;;;;;5022679;28;47015;-64
2022/09/14 06:55:43;;;;;;;;;6.00;6.00;;;;;;;;5024512;28;45720;-64
2022/09/14 06:58:08;;;;;;;;;11.00;6.75;;;;;;;;5025253;28;45848;-65
2022/09/14 07:00:34;;;;;;;;;4.50;4.00;;;;;;;;5030556;28;45444;-65
2022/09/14 07:02:59;;;;;;;;;6.00;6.00;;;;;;;;5024177;28;45965;-65
2022/09/14 07:05:24;;;;;;;;;9.50;8.00;;;;;;;;5026273;28;45373;-65
2022/09/14 07:07:51;;;;;;;;;7.25;6.00;;;;;;;;5026122;28;45398;-65
2022/09/14 07:10:16;;;;;;;;;5.25;4.00;;;;;;;;5033121;28;45495;-64
2022/09/14 07:12:41;;;;;;;;;5.75;5.25;;;;;;;;5038960;28;45605;-64
2022/09/14 07:15:07;;;;;;;;;6.25;6.25;;;;;;;;5026910;28;45226;-64
2022/09/14 07:17:32;;;;;;;;;4.25;4.25;;;;;;;;5027495;28;45327;-64
2022/09/14 07:19:57;;;;;;;;;8.50;7.00;;;;;;;;5029743;28;45497;-64
2022/09/14 07:22:22;;;;;;;;;5.25;5.25;;;;;;;;5036699;28;45655;-65
2022/09/14 07:24:48;;;;;;;;;7.00;6.00;;;;;;;;5030893;28;45383;-64
2022/09/14 07:27:13;;;;;;;;;7.25;7.00;;;;;;;;5033649;28;45427;-64
2022/09/14 07:29:38;;;;;;;;;10.75;8.50;;;;;;;;5020014;28;45270;-64
2022/09/14 07:32:04;;;;;;;;;7.00;5.50;;;;;;;;5023898;28;46139;-64
2022/09/14 07:34:29;;;;;;;;;7.75;6.25;;;;;;;;5020664;28;45360;-64
2022/09/14 07:36:54;;;;;;;;;7.00;6.00;;;;;;;;5024439;28;45240;-64
2022/09/14 07:39:19;;;;;;;;;7.75;6.00;;;;;;;;5023465;28;45434;-64
2022/09/14 07:41:45;;;;;;;;;7.00;7.00;;;;;;;;5027535;28;46197;-64
2022/09/14 07:44:15;;;;;;;;;8.75;6.00;;;;;;;;5034912;28;45370;-64
2022/09/14 07:46:42;;;;;;;;;5.50;5.50;;;;;;;;5026993;28;45228;-64
2022/09/14 07:49:09;;;;;;;;;5.25;4.00;;;;;;;;5028708;28;45375;-64
2022/09/14 07:51:35;;;;;;;;;8.75;7.50;;;;;;;;5029609;28;45359;-64
2022/09/14 07:54:01;;;;;;;;;8.00;7.00;;;;;;;;5034056;28;45446;-65
2022/09/14 07:56:26;;;;;;;;;6.00;5.00;;;;;;;;5028088;28;45232;-65
2022/09/14 07:58:52;;;;;;;;;5.25;5.00;;;;;;;;5027820;28;45497;-63
2022/09/14 08:01:18;;;;;;;;;5.00;4.00;;;;;;;;5035217;28;45480;-65
2022/09/14 08:03:43;;;;;;;;;3.50;3.50;;;;;;;;5022134;28;45694;-65
2022/09/14 08:06:17;;;;;;;;;4.00;4.00;;;;;;;;5026233;28;45459;-65
2022/09/14 08:08:43;;;;;;;;;4.50;4.25;;;;;;;;5015167;28;45427;-65
2022/09/14 08:11:10;;;;;;;;;7.25;4.00;;;;;;;;5026436;28;46388;-65
2022/09/14 08:13:36;;;;;;;;;7.00;6.00;;;;;;;;5026508;28;45374;-65
2022/09/14 08:16:02;;;;;;;;;10.00;6.00;;;;;;;;5029089;28;45544;-65
2022/09/14 08:18:28;;;;;;;;;6.25;5.25;;;;;;;;5029861;28;45461;-65
2022/09/14 08:20:53;;;;;;;;;6.50;4.50;;;;;;;;5024204;28;46020;-65
2022/09/14 08:23:18;;;;;;;;;5.25;3.75;;;;;;;;5029403;28;45360;-65
2022/09/14 08:25:44;;;;;;;;;7.00;7.00;;;;;;;;5029517;28;45463;-65
2022/09/14 08:28:09;;;;;;;;;5.75;5.25;;;;;;;;5022330;28;45702;-64
2022/09/14 08:30:34;;;;;;;;;8.75;5.00;;;;;;;;5024579;28;46296;-64
2022/09/14 08:32:59;;;;;;;;;5.00;5.00;;;;;;;;5018681;28;45391;-65
2022/09/14 08:35:24;;;;;;;;;8.00;4.00;;;;;;;;5014588;28;45414;-65
2022/09/14 08:37:50;;;;;;;;;7.00;6.00;;;;;;;;5013693;28;45419;-65
2022/09/14 08:40:16;;;;;;;;;5.00;5.00;;;;;;;;5020572;28;46279;-65
2022/09/14 08:42:42;;;;;;;;;3.00;2.25;;;;;;;;5025637;28;45532;-65
2022/09/14 08:45:10;;;;;;;;;5.25;3.50;;;;;;;;5021263;28;45224;-65
2022/09/14 08:47:37;;;;;;;;;5.00;5.00;;;;;;;;5024935;28;45147;-65
2022/09/14 08:50:03;;;;;;;;;8.00;5.25;;;;;;;;5019783;28;46332;-65
2022/09/14 08:52:42;;;;;;;;;4.75;4.75;;;;;;;;5026469;28;45517;-65
2022/09/14 08:55:19;;;;;;;;;7.75;5.50;;;;;;;;5014140;28;45312;-65
2022/09/14 08:57:53;;;;;;;;;7.50;7.00;;;;;;;;5024567;28;45546;-65
2022/09/14 09:00:21;;;;;;;;;6.25;4.50;;;;;;;;5035840;28;46331;-65
2022/09/14 09:03:05;;;;;;;;;5.25;4.75;;;;;;;;5033486;28;45684;-65
2022/09/14 09:05:46;;;;;;;;;5.75;4.75;;;;;;;;5015884;28;45393;-63
2022/09/14 09:08:14;;;;;;;;;4.75;4.25;;;;;;;;5021397;28;45750;-64
2022/09/14 09:10:39;;;;;;;;;4.25;4.25;;;;;;;;5026957;28;45708;-63
2022/09/14 09:13:05;;;;;;;;;5.50;5.25;;;;;;;;5021426;28;45477;-64
2022/09/14 09:15:56;;;;;;;;;6.50;4.25;;;;;;;;5023132;28;45448;-65
2022/09/14 09:18:25;;;;;;;;;3.75;2.50;;;;;;;;5008550;28;45486;-65
2022/09/14 09:20:51;;;;;;;;;3.00;3.00;;;;;;;;5029751;28;46691;-65
2022/09/14 09:23:21;;;;;;;;;4.25;4.25;;;;;;;;5019803;28;45772;-65
2022/09/14 09:25:46;;;;;;;;;5.00;5.00;;;;;;;;5021103;28;45455;-65
2022/09/14 09:28:12;;;;;;;;;5.75;4.75;;;;;;;;5026988;28;45402;-65
2022/09/14 09:30:40;;;;;;;;;3.00;3.00;;;;;;;;5027475;28;46292;-65
2022/09/14 09:33:05;;;;;;;;;4.00;3.00;;;;;;;;5023106;28;45599;-65
2022/09/14 09:35:31;;;;;;;;;5.00;4.75;;;;;;;;5026480;28;45295;-66
2022/09/14 09:37:56;;;;;;;;;5.00;4.00;;;;;;;;5028363;28;45427;-66
2022/09/14 09:40:27;;;;;;;;;3.25;3.25;;;;;;;;5029643;28;45638;-66
2022/09/14 09:43:07;;;;;;;;;3.50;3.00;;;;;;;;5018897;28;45402;-64
2022/09/14 09:45:46;;;;;;;;;3.50;3.50;;;;;;;;5024218;28;45316;-65
2022/09/14 09:48:13;;;;;;;;;4.00;3.75;;;;;;;;5024466;28;45268;-65
2022/09/14 09:50:45;;;;;;;;;1.75;1.75;;;;;;;;5028567;28;46108;-65
2022/09/14 09:53:13;;;;;;;;;2.25;2.25;;;;;;;;5024218;28;45407;-65
2022/09/14 09:55:39;;;;;;;;;4.25;1.25;;;;;;;;5029339;28;45857;-65
2022/09/14 09:58:20;;;;;;;;;1.25;1.25;;;;;;;;5027191;28;45473;-65
2022/09/14 10:00:53;;;;;;;;;1.25;1.25;;;;;;;;5020491;28;47004;-65
2022/09/14 10:03:24;;;;;;;;;2.80;1.80;;;;;;;;5021189;28;45426;-65
2022/09/14 10:05:58;;;;;;;;;3.25;2.00;;;;;;;;5035842;28;45470;-65
2022/09/14 10:08:24;;;;;;;;;2.00;2.00;;;;;;;;5024041;28;45461;-64
2022/09/14 10:10:50;;;;;;;;;4.25;4.25;;;;;;;;5026968;28;46986;-66
2022/09/14 10:13:28;;;;;;;;;2.50;2.50;;;;;;;;5020099;28;45688;-66
2022/09/14 10:16:04;;;;;;;;;1.25;1.25;;;;;;;;5022456;28;45439;-66
2022/09/14 10:18:29;;;;;;;;;3.75;3.25;;;;;;;;5027266;28;45872;-66
2022/09/14 10:20:57;;;;;;;;;4.00;4.00;;;;;;;;5028032;28;45490;-64
2022/09/14 10:23:24;;;;;;;;;2.00;2.00;;;;;;;;5035381;28;45396;-67
2022/09/14 10:26:12;;;;;;;;;3.25;2.50;;;;;;;;5021312;28;45436;-66
2022/09/14 10:28:38;;;;;;;;;3.75;3.75;;;;;;;;5026566;28;45382;-66
2022/09/14 10:31:13;;;;;;;;;2.75;2.75;;;;;;;;5024102;28;46151;-65
2022/09/14 10:33:39;;;;;;;;;3.75;2.00;;;;;;;;5025612;28;45506;-66
2022/09/14 10:36:10;;;;;;;;;2.50;2.00;;;;;;;;5040802;28;45798;-65
2022/09/14 10:38:51;;;;;;;;;2.00;2.00;;;;;;;;5033792;28;45430;-65
2022/09/14 10:41:21;;;;;;;;;1.75;1.75;;;;;;;;5009360;28;47133;-65
2022/09/14 10:43:55;;;;;;;;;2.00;2.00;;;;;;;;5025098;28;45857;-66
2022/09/14 10:46:23;;;;;;;;;1.75;1.75;;;;;;;;5028090;28;45246;-66
2022/09/14 10:49:01;;;;;;;;;0.00;0.00;;;;;;;;5033554;28;45487;-66
2022/09/14 10:51:41;;;;;;;;;4.75;3.25;;;;;;;;5028083;28;46031;-66
2022/09/14 10:54:11;;;;;;;;;5.00;2.50;;;;;;;;5039695;28;45533;-65
2022/09/14 10:56:40;;;;;;;;;5.00;5.00;;;;;;;;5041174;28;45365;-65
2022/09/14 10:59:21;;;;;;;;;3.50;3.50;;;;;;;;5025999;28;45423;-65
2022/09/14 11:02:03;;;;;;;;;3.25;2.25;;;;;;;;5040216;28;46082;-65
2022/09/14 11:04:34;;;;;;;;;2.75;2.50;;;;;;;;5018747;28;45766;-65
2022/09/14 11:07:05;;;;;;;;;2.00;2.00;;;;;;;;5024022;28;45399;-66
2022/09/14 11:09:31;;;;;;;;;3.00;2.00;;;;;;;;5024920;28;45566;-66
2022/09/14 11:12:08;;;;;;;;;5.00;4.00;;;;;;;;5025488;28;46243;-66
2022/09/14 11:14:36;;;;;;;;;1.75;1.75;;;;;;;;5015297;28;45451;-66
2022/09/14 11:17:01;;;;;;;;;4.00;2.75;;;;;;;;5027751;28;45443;-66
2022/09/14 11:19:56;;;;;;;;;2.50;2.50;;;;;;;;5022248;28;45292;-66
2022/09/14 11:22:43;;;;;;;;;4.00;2.50;;;;;;;;5016178;28;46321;-66
2022/09/14 11:25:11;;;;;;;;;4.00;2.50;;;;;;;;5015468;28;45584;-66
2022/09/14 11:27:50;;;;;;;;;4.50;4.00;;;;;;;;5029713;28;45792;-65
2022/09/14 11:30:22;;;;;;;;;3.50;3.00;;;;;;;;5027289;28;45708;-66
2022/09/14 11:33:06;;;;;;;;;2.25;2.25;;;;;;;;5020221;28;46176;-66
2022/09/14 11:35:38;;;;;;;;;2.50;2.25;;;;;;;;5032644;28;45498;-66
2022/09/14 11:38:09;;;;;;;;;2.00;2.00;;;;;;;;5028375;28;46814;-65
2022/09/14 11:40:53;;;;;;;;;1.00;1.00;;;;;;;;5019686;28;45257;-66
2022/09/14 11:43:21;;;;;;;;;2.25;2.25;;;;;;;;5014617;28;45478;-65
2022/09/14 11:45:49;;;;;;;;;2.00;2.00;;;;;;;;5025473;28;45343;-66
2022/09/14 11:48:20;;;;;;;;;4.75;3.00;;;;;;;;5022518;28;45482;-66
2022/09/14 11:50:46;;;;;;;;;4.50;2.00;;;;;;;;5026862;28;45594;-66
2022/09/14 11:53:13;;;;;;;;;1.00;1.00;;;;;;;;5021854;28;47055;-66
2022/09/14 11:55:42;;;;;;;;;2.25;2.25;;;;;;;;5034295;28;45455;-66
2022/09/14 11:58:16;;;;;;;;;1.75;1.75;;;;;;;;5022961;28;45834;-66
2022/09/14 12:00:42;;;;;;;;;0.00;0.00;;;;;;;;5019605;28;45343;-66
2022/09/14 12:03:13;;;;;;;;;0.75;0.75;;;;;;;;5028558;28;46295;-66
2022/09/14 12:05:39;;;;;;;;;1.50;0.75;;;;;;;;5032594;28;45350;-66
2022/09/14 12:08:24;;;;;;;;;6.75;1.00;;;;;;;;5024656;28;45369;-67
2022/09/14 12:11:08;;;;;;;;;1.50;1.50;;;;;;;;5019727;28;45433;-66
2022/09/14 12:13:33;;;;;;;;;2.75;1.75;;;;;;;;5019326;28;47100;-65
2022/09/14 12:16:08;;;;;;;;;1.25;1.25;;;;;;;;5019380;28;45992;-66
2022/09/14 12:18:37;;;;;;;;;0.75;0.25;;;;;;;;5023717;28;45446;-65
2022/09/14 12:21:17;;;;;;;;;0.75;0.75;;;;;;;;5019745;28;45451;-66
2022/09/14 12:23:44;;;;;;;;;0.00;0.00;;;;;;;;5020186;28;46301;-66
2022/09/14 12:26:09;;;;;;;;;2.80;0.80;;;;;;;;5029907;28;45355;-65
2022/09/14 12:28:37;;;;;;;;;0.75;0.75;;;;;;;;5026249;28;45677;-66
2022/09/14 12:31:02;;;;;;;;;0.25;0.25;;;;;;;;5029500;28;45383;-66
2022/09/14 12:33:31;;;;;;;;;1.50;1.50;;;;;;;;5019526;28;46899;-66
2022/09/14 12:36:05;;;;;;;;;1.40;0.00;;;;;;;;5028977;28;45715;-66
2022/09/14 12:38:30;;;;;;;;;1.25;0.00;;;;;;;;5024135;28;45230;-66
2022/09/14 12:40:56;;;;;;;;;1.00;1.00;;;;;;;;5028041;28;45307;-66
2022/09/14 12:43:34;;;;;;;;;3.00;0.75;;;;;;;;5033117;28;46149;-65
2022/09/14 12:46:02;;;;;;;;;0.20;0.20;;;;;;;;5028279;28;45372;-65
2022/09/14 12:48:45;;;;;;;;;1.00;0.00;;;;;;;;5015737;28;45594;-65
2022/09/14 12:51:23;;;;;;;;;0.25;0.25;;;;;;;;5018483;28;45550;-65
2022/09/14 12:54:08;;;;;;;;;0.00;0.00;;;;;;;;5022359;28;46453;-66
2022/09/14 12:56:39;;;;;;;;;0.60;0.60;;;;;;;;5020911;28;45327;-66
2022/09/14 12:59:10;;;;;;;;;0.00;0.00;;;;;;;;5021973;28;45424;-66
2022/09/14 13:01:44;;;;;;;;;0.00;0.00;;;;;;;;5016787;28;45371;-67
2022/09/14 13:04:15;;;;;;;;;2.25;0.75;;;;;;;;5022213;28;46188;-67
2022/09/14 13:06:45;;;;;;;;;1.50;0.75;;;;;;;;5025605;28;45481;-67
2022/09/14 13:09:18;;;;;;;;;0.00;0.00;;;;;;;;5020064;28;45237;-65
2022/09/14 13:11:45;;;;;;;;;0.25;0.25;;;;;;;;5023700;28;45565;-67
2022/09/14 13:14:33;;;;;;;;;0.50;0.00;;;;;;;;5023506;28;45492;-65
2022/09/14 13:16:59;;;;;;;;;0.00;0.00;;;;;;;;5010526;28;46794;-65
2022/09/14 13:19:29;;;;;;;;;0.25;0.25;;;;;;;;5022061;28;45464;-65
2022/09/14 13:21:56;;;;;;;;;0.00;0.00;;;;;;;;5026533;28;45274;-66
2022/09/14 13:24:27;;;;;;;;;0.75;0.00;;;;;;;;5029371;28;46349;-65
2022/09/14 13:26:57;;;;;;;;;0.00;0.00;;;;;;;;5027628;28;45796;-65
2022/09/14 13:29:25;;;;;;;;;0.00;0.00;;;;;;;;5024634;28;45394;-66
2022/09/14 13:31:50;;;;;;;;;0.00;0.00;;;;;;;;5019349;28;45431;-65
2022/09/14 13:34:18;;;;;;;;;0.75;0.75;;;;;;;;5021888;28;45447;-65
2022/09/14 13:36:43;;;;;;;;;0.00;0.00;;;;;;;;5025026;28;45415;-65
2022/09/14 13:39:31;;;;;;;;;0.00;0.00;;;;;;;;5027633;28;45386;-66
2022/09/14 13:41:57;;;;;;;;;2.00;0.25;;;;;;;;5012164;28;45399;-65
2022/09/14 13:44:33;;;;;;;;;0.75;0.75;;;;;;;;5016023;28;46948;-65
2022/09/14 13:47:00;;;;;;;;;0.60;0.60;;;;;;;;5033121;28;45851;-65
2022/09/14 13:49:26;;;;;;;;;0.75;0.75;;;;;;;;5025416;28;46996;-65
2022/09/14 13:51:51;;;;;;;;;1.00;1.00;;;;;;;;5026111;28;45624;-66
2022/09/14 13:54:16;;;;;;;;;0.75;0.75;;;;;;;;5021706;28;46123;-65
2022/09/14 13:56:41;;;;;;;;;0.00;0.00;;;;;;;;5018843;28;45474;-66
2022/09/14 13:59:20;;;;;;;;;0.00;0.00;;;;;;;;5021993;28;45477;-65
2022/09/14 14:01:45;;;;;;;;;0.00;0.00;;;;;;;;5024754;28;45430;-64
2022/09/14 14:04:36;;;;;;;;;0.00;0.00;;;;;;;;5017858;28;46068;-65
2022/09/14 14:07:16;;;;;;;;;0.80;0.80;;;;;;;;5016526;28;45296;-64
2022/09/14 14:09:51;;;;;;;;;0.00;0.00;;;;;;;;5029597;28;45630;-64
2022/09/14 14:12:24;;;;;;;;;0.00;0.00;;;;;;;;5025432;28;45628;-64
2022/09/14 14:14:57;;;;;;;;;0.50;0.50;;;;;;;;5034778;28;46808;-65
2022/09/14 14:17:28;;;;;;;;;0.60;0.60;;;;;;;;5039381;28;45476;-65
2022/09/14 14:19:54;;;;;;;;;0.00;0.00;;;;;;;;5039428;28;45403;-65
2022/09/14 14:22:25;;;;;;;;;0.00;0.00;;;;;;;;5040607;28;45300;-65
2022/09/14 14:24:51;;;;;;;;;0.00;0.00;;;;;;;;5039557;28;46125;-65
2022/09/14 14:27:31;;;;;;;;;1.00;1.00;;;;;;;;5040516;28;45303;-65
2022/09/14 14:29:57;;;;;;;;;1.75;0.00;;;;;;;;5040110;28;45720;-65
2022/09/14 14:32:23;;;;;;;;;0.75;0.50;;;;;;;;5039321;28;45415;-65
2022/09/14 14:34:48;;;;;;;;;0.50;0.00;;;;;;;;5027013;28;46531;-65
2022/09/14 14:37:14;;;;;;;;;0.25;0.00;;;;;;;;5039036;28;45228;-66
2022/09/14 14:39:39;;;;;;;;;0.00;0.00;;;;;;;;5027503;28;45250;-65
2022/09/14 14:42:04;;;;;;;;;0.00;0.00;;;;;;;;5039302;28;45392;-65
2022/09/14 14:44:30;;;;;;;;;2.25;1.00;;;;;;;;5037674;28;46823;-65
2022/09/14 14:46:55;;;;;;;;;1.50;0.00;;;;;;;;5038350;28;45232;-65
2022/09/14 14:49:21;;;;;;;;;0.75;0.00;;;;;;;;5028455;28;45436;-64
2022/09/14 14:51:46;;;;;;;;;0.00;0.00;;;;;;;;5038272;28;45725;-64
2022/09/14 14:54:16;;;;;;;;;0.00;0.00;;;;;;;;5037416;28;46958;-65
2022/09/14 14:56:42;;;;;;;;;0.00;0.00;;;;;;;;5018695;28;45379;-65
2022/09/14 14:59:20;;;;;;;;;0.25;0.25;;;;;;;;5022717;28;45436;-63
2022/09/14 15:01:49;;;;;;;;;0.25;0.00;;;;;;;;5023633;28;45441;-64
2022/09/14 15:04:14;;;;;;;;;1.50;0.00;;;;;;;;5019287;28;46440;-64
2022/09/14 15:06:39;;;;;;;;;0.25;0.00;;;;;;;;5021937;28;45413;-65
2022/09/14 15:09:08;;;;;;;;;2.00;1.00;;;;;;;;5024953;28;45512;-65
2022/09/14 15:11:37;;;;;;;;;0.00;0.00;;;;;;;;5019426;28;45419;-64
2022/09/14 15:14:02;;;;;;;;;0.00;0.00;;;;;;;;5024802;28;47000;-65
2022/09/14 15:16:27;;;;;;;;;0.25;0.00;;;;;;;;5024636;28;45312;-65
2022/09/14 15:18:52;;;;;;;;;4.50;2.75;;;;;;;;5025199;28;45482;-65
2022/09/14 15:21:18;;;;;;;;;0.00;0.00;;;;;;;;5032614;28;45454;-66
2022/09/14 15:23:43;;;;;;;;;1.00;0.50;;;;;;;;5022362;28;45526;-67
2022/09/14 15:26:08;;;;;;;;;0.75;0.25;;;;;;;;5031025;28;45399;-65
2022/09/14 15:28:37;;;;;;;;;0.00;0.00;;;;;;;;5032212;28;45844;-64
2022/09/14 15:31:02;;;;;;;;;1.00;1.00;;;;;;;;5021778;28;45513;-66
2022/09/14 15:33:27;;;;;;;;;0.00;0.00;;;;;;;;5018555;28;46334;-65
2022/09/14 15:35:53;;;;;;;;;0.75;0.75;;;;;;;;5024587;28;45450;-65
2022/09/14 15:38:19;;;;;;;;;0.25;0.25;;;;;;;;5021590;28;45391;-64
2022/09/14 15:40:44;;;;;;;;;0.50;0.50;;;;;;;;5022484;28;45598;-65
2022/09/14 15:43:09;;;;;;;;;1.00;1.00;;;;;;;;5023575;28;47223;-65
2022/09/14 15:45:35;;;;;;;;;0.25;0.25;;;;;;;;5020253;28;45537;-66
2022/09/14 15:48:00;;;;;;;;;0.00;0.00;;;;;;;;5018698;28;45764;-62
2022/09/14 15:50:25;;;;;;;;;0.00;0.00;;;;;;;;5019097;28;45336;-70
2022/09/14 15:52:51;;;;;;;;;0.75;0.75;;;;;;;;5021350;28;45413;-65
2022/09/14 15:55:16;;;;;;;;;0.00;0.00;;;;;;;;5018941;28;45592;-63
2022/09/14 15:57:41;;;;;;;;;1.00;1.00;;;;;;;;5018552;28;45369;-64
2022/09/14 16:00:08;;;;;;;;;1.50;1.50;;;;;;;;5020786;28;45590;-67
2022/09/14 16:02:33;;;;;;;;;1.00;1.00;;;;;;;;5033575;28;47029;-66
2022/09/14 16:04:58;;;;;;;;;1.00;1.00;;;;;;;;5034381;28;45286;-66
2022/09/14 16:07:24;;;;;;;;;1.00;1.00;;;;;;;;5026943;28;46508;-67
2022/09/14 16:09:49;;;;;;;;;1.00;0.25;;;;;;;;5019127;28;45462;-68
2022/09/14 16:12:14;;;;;;;;;0.25;0.25;;;;;;;;5034119;28;45970;-68
2022/09/14 16:14:39;;;;;;;;;2.75;2.00;;;;;;;;5030750;28;45398;-68
2022/09/14 16:17:05;;;;;;;;;0.00;0.00;;;;;;;;5035047;28;45426;-68
2022/09/14 16:19:30;;;;;;;;;1.25;0.50;;;;;;;;5035566;28;45442;-69
2022/09/14 16:21:56;;;;;;;;;0.00;0.00;;;;;;;;5029130;28;48427;-68
2022/09/14 16:24:22;;;;;;;;;0.75;0.00;;;;;;;;5026505;28;45498;-67
2022/09/14 16:26:47;;;;;;;;;0.25;0.25;;;;;;;;5018971;28;45470;-67
2022/09/14 16:29:14;;;;;;;;;1.00;1.00;;;;;;;;5036766;28;45279;-68
2022/09/14 16:31:41;;;;;;;;;0.50;0.00;;;;;;;;5026123;28;45999;-68
2022/09/14 16:34:09;;;;;;;;;0.00;0.00;;;;;;;;5017875;28;45402;-68
2022/09/14 16:36:35;;;;;;;;;2.50;2.00;;;;;;;;5016580;28;45308;-68
2022/09/14 16:39:02;;;;;;;;;0.50;0.25;;;;;;;;5021399;28;45557;-68
2022/09/14 16:41:27;;;;;;;;;3.00;3.00;;;;;;;;5022584;28;47091;-68
2022/09/14 16:43:54;;;;;;;;;0.00;0.00;;;;;;;;5024321;28;45447;-68
2022/09/14 16:46:19;;;;;;;;;1.00;0.00;;;;;;;;5028038;28;45399;-68
2022/09/14 16:48:45;;;;;;;;;1.00;1.00;;;;;;;;5030238;28;45299;-68
2022/09/14 16:51:11;;;;;;;;;0.25;0.25;;;;;;;;5027456;28;47339;-71
2022/09/14 16:53:38;;;;;;;;;2.50;1.75;;;;;;;;5025324;28;45731;-70
2022/09/14 16:56:06;;;;;;;;;1.50;1.00;;;;;;;;5031999;28;45565;-69
2022/09/14 16:58:32;;;;;;;;;1.00;0.50;;;;;;;;5022859;28;46428;-70
2022/09/14 17:01:05;;;;;;;;;0.00;0.00;;;;;;;;5013974;28;46026;-70
2022/09/14 17:03:30;;;;;;;;;1.00;1.00;;;;;;;;5020733;28;45399;-70
2022/09/14 17:06:03;;;;;;;;;2.00;0.50;;;;;;;;5026034;28;45591;-70
2022/09/14 17:08:28;;;;;;;;;1.25;1.00;;;;;;;;5026456;28;45358;-70
2022/09/14 17:10:53;;;;;;;;;0.75;0.75;;;;;;;;5028329;28;46107;-70
2022/09/14 17:13:19;;;;;;;;;2.00;2.00;;;;;;;;5031462;28;45470;-70
2022/09/14 17:15:44;;;;;;;;;2.25;1.75;;;;;;;;5026276;28;45640;-71
2022/09/14 17:18:09;;;;;;;;;0.25;0.25;;;;;;;;5023694;28;45569;-71
2022/09/14 17:20:34;;;;;;;;;2.00;0.50;;;;;;;;5023871;28;46258;-71
2022/09/14 17:23:00;;;;;;;;;1.00;1.00;;;;;;;;5027362;28;45630;-71
2022/09/14 17:25:25;;;;;;;;;2.00;2.00;;;;;;;;5027713;28;45751;-71
2022/09/14 17:27:50;;;;;;;;;1.00;1.00;;;;;;;;5029404;28;45415;-70
2022/09/14 17:30:15;;;;;;;;;2.75;1.00;;;;;;;;5022305;28;45706;-69
2022/09/14 17:32:40;;;;;;;;;1.00;1.00;;;;;;;;5031229;28;45429;-71
2022/09/14 17:35:06;;;;;;;;;1.00;1.00;;;;;;;;5029820;28;45379;-70
2022/09/14 17:37:31;;;;;;;;;0.00;0.00;;;;;;;;5026670;28;45638;-70
2022/09/14 17:39:56;;;;;;;;;1.00;1.00;;;;;;;;5025583;28;45477;-70
2022/09/14 17:42:21;;;;;;;;;1.00;1.00;;;;;;;;5020370;28;45474;-70
2022/09/14 17:44:47;;;;;;;;;1.00;1.00;;;;;;;;5018848;28;45276;-70
2022/09/14 17:47:12;;;;;;;;;1.00;1.00;;;;;;;;5023061;28;45623;-70
2022/09/14 17:49:37;;;;;;;;;0.00;0.00;;;;;;;;5026691;28;46314;-71
2022/09/14 17:52:02;;;;;;;;;2.50;1.00;;;;;;;;5028542;28;45288;-70
2022/09/14 17:54:27;;;;;;;;;2.25;1.00;;;;;;;;5026301;28;45343;-70
2022/09/14 17:56:53;;;;;;;;;1.75;1.50;;;;;;;;5024969;28;45320;-70
2022/09/14 17:59:19;;;;;;;;;1.00;1.00;;;;;;;;5025416;28;45609;-71
2022/09/14 18:01:44;;;;;;;;;1.75;1.75;;;;;;;;5025268;28;45382;-71
2022/09/14 18:04:10;;;;;;;;;0.75;0.75;;;;;;;;5023702;28;45516;-71
2022/09/14 18:06:37;;;;;;;;;1.00;1.00;;;;;;;;5025532;28;45510;-71
2022/09/14 18:09:04;;;;;;;;;1.00;1.00;;;;;;;;5025213;28;46407;-71
2022/09/14 18:11:30;;;;;;;;;2.25;1.00;;;;;;;;5025060;28;45385;-71
2022/09/14 18:13:56;;;;;;;;;1.00;1.00;;;;;;;;5025326;28;45607;-71
2022/09/14 18:16:22;;;;;;;;;1.75;1.75;;;;;;;;5024777;28;45444;-71
2022/09/14 18:18:48;;;;;;;;;1.00;1.00;;;;;;;;5024853;28;46322;-71
2022/09/14 18:21:15;;;;;;;;;0.00;0.00;;;;;;;;5021786;28;45390;-71
2022/09/14 18:23:40;;;;;;;;;3.25;3.00;;;;;;;;5032252;28;45333;-71
2022/09/14 18:26:06;;;;;;;;;2.25;2.00;;;;;;;;5035679;28;45390;-71
2022/09/14 18:28:32;;;;;;;;;2.00;2.00;;;;;;;;5040059;28;47139;-71
2022/09/14 18:31:00;;;;;;;;;1.50;1.50;;;;;;;;5034832;28;45522;-68
2022/09/14 18:33:25;;;;;;;;;3.25;2.50;;;;;;;;5024389;28;45463;-72
2022/09/14 18:35:54;;;;;;;;;3.25;3.00;;;;;;;;5021681;28;45447;-72
2022/09/14 18:38:19;;;;;;;;;3.00;3.00;;;;;;;;5037073;28;45510;-71
2022/09/14 18:40:44;;;;;;;;;2.75;2.75;;;;;;;;5018422;28;46378;-70
2022/09/14 18:43:09;;;;;;;;;1.25;1.25;;;;;;;;5022687;28;45125;-72
2022/09/14 18:45:35;;;;;;;;;2.00;2.00;;;;;;;;5025699;28;45598;-71
2022/09/14 18:48:01;;;;;;;;;3.50;2.00;;;;;;;;5029822;28;46071;-71
2022/09/14 18:50:26;;;;;;;;;4.00;4.00;;;;;;;;5026279;28;45528;-72
2022/09/14 18:52:51;;;;;;;;;3.00;3.00;;;;;;;;5029975;28;45451;-72
2022/09/14 18:55:17;;;;;;;;;5.25;3.75;;;;;;;;5023902;28;45460;-71
2022/09/14 18:57:46;;;;;;;;;5.25;3.25;;;;;;;;5026095;28;46145;-71
2022/09/14 19:00:12;;;;;;;;;3.00;2.00;;;;;;;;5030850;28;45300;-72
2022/09/14 19:02:37;;;;;;;;;4.25;3.00;;;;;;;;5026304;28;45355;-72
2022/09/14 19:05:03;;;;;;;;;2.00;2.00;;;;;;;;5021509;28;45637;-70
2022/09/14 19:07:28;;;;;;;;;2.50;2.50;;;;;;;;5018010;28;45782;-71
2022/09/14 19:09:55;;;;;;;;;2.00;2.00;;;;;;;;5031167;28;45537;-72
2022/09/14 19:12:21;;;;;;;;;3.00;3.00;;;;;;;;5022908;28;45478;-72
2022/09/14 19:14:46;;;;;;;;;2.00;2.00;;;;;;;;5020606;28;45178;-72
2022/09/14 19:17:11;;;;;;;;;2.50;1.50;;;;;;;;5020175;28;45624;-72
2022/09/14 19:19:36;;;;;;;;;1.25;1.25;;;;;;;;5020176;28;45820;-71